Hua Hin, Thailand
Current Conditions -  °F | °C
As of 7:00 PM on Saturday 20 Dec 2014 (Local Time) from VTBU Reporting Station
Haze Haze  
Wind Chill: 79°   Ceiling: Unl
Heat Index: 81°   Visibility: 2.5mi
Dew Point: 66°   Wind: 5mph
Humidity: 65%   Direction: 360°N
Pressure: 29.83"   Gusts: NA
Location:  12.57°N, 99.95°E
Report Text: VTBU 201200Z 36004KT 4000 HZ NSC 26/19 Q1010 A2986
Loading
Personal Weather Stations






























Interactive Weather Map New forecast layout! Learn more

10-Day Weather Forecast

Advertisements
Track Severe Weather on mobile